Time;durP1;ratioP1;P1;durP2;ratioP2;P2;SDS_P1;SDS_P2;PMS_P1;PMS_P2;Temp;Humidity;BMP_temperature;BMP_pressure;BME280_temperature;BME280_humidity;BME280_pressure;Samples;Min_cycle;Max_cycle;Signal;HPM_P1;HPM_P2
2023/08/17 00:00:42;;;;;;;7.05;3.20;;;17.00;99.90;;;;;;4897454;29;20048;-78
2023/08/17 00:03:08;;;;;;;5.00;2.88;;;17.10;99.90;;;;;;4881143;29;20087;-77
2023/08/17 00:05:33;;;;;;;8.93;3.75;;;17.00;99.90;;;;;;4878234;29;20483;-77
2023/08/17 00:08:02;;;;;;;8.68;3.42;;;17.00;99.90;;;;;;4863375;29;20049;-75
2023/08/17 00:10:28;;;;;;;6.15;3.10;;;17.10;99.90;;;;;;4878456;29;20132;-77
2023/08/17 00:12:54;;;;;;;5.25;3.05;;;17.00;99.90;;;;;;4879691;29;20120;-79
2023/08/17 00:15:20;;;;;;;5.88;2.90;;;17.00;99.90;;;;;;4893894;29;20495;-76
2023/08/17 00:17:46;;;;;;;5.53;3.03;;;17.00;99.90;;;;;;4886310;29;20104;-78
2023/08/17 00:20:11;;;;;;;10.57;3.42;;;17.00;99.90;;;;;;4883423;29;20405;-76
2023/08/17 00:22:37;;;;;;;7.93;2.88;;;17.00;99.90;;;;;;4887861;29;20048;-78
2023/08/17 00:25:06;;;;;;;5.82;3.25;;;16.90;99.90;;;;;;4879162;29;20053;-77
2023/08/17 00:27:33;;;;;;;7.43;2.90;;;16.90;99.90;;;;;;4883434;29;20048;-76
2023/08/17 00:29:58;;;;;;;7.63;3.05;;;16.90;99.90;;;;;;4887812;29;20395;-77
2023/08/17 00:32:24;;;;;;;5.68;2.60;;;16.90;99.90;;;;;;4895792;29;20048;-77
2023/08/17 00:34:50;;;;;;;6.00;2.85;;;16.90;99.90;;;;;;4890832;29;20108;-78
2023/08/17 00:37:15;;;;;;;5.15;2.80;;;17.00;99.90;;;;;;4872261;29;20060;-77
2023/08/17 00:39:41;;;;;;;5.57;2.80;;;17.00;99.90;;;;;;4874793;29;20045;-78
2023/08/17 00:42:08;;;;;;;6.68;3.00;;;17.00;99.90;;;;;;4896841;29;20223;-77
2023/08/17 00:44:33;;;;;;;5.57;3.10;;;17.00;99.90;;;;;;4877360;29;20144;-76
2023/08/17 00:46:59;;;;;;;5.53;2.65;;;17.00;99.90;;;;;;4878029;29;20135;-76
2023/08/17 00:49:25;;;;;;;7.57;3.20;;;17.00;99.90;;;;;;4884545;29;20456;-77
2023/08/17 00:51:51;;;;;;;6.35;2.90;;;16.90;99.90;;;;;;4897715;29;20044;-77
2023/08/17 00:54:23;;;;;;;7.40;2.95;;;16.90;99.90;;;;;;4896119;29;20064;-77
2023/08/17 00:56:49;;;;;;;8.80;2.85;;;16.90;99.90;;;;;;4896281;29;20491;-78
2023/08/17 00:59:15;;;;;;;6.97;2.90;;;16.90;99.90;;;;;;4885824;29;20045;-76
2023/08/17 01:01:42;;;;;;;7.63;3.10;;;16.80;99.90;;;;;;4885310;29;20453;-77
2023/08/17 01:04:07;;;;;;;7.38;3.08;;;16.80;99.90;;;;;;4886211;29;20080;-76
2023/08/17 01:06:33;;;;;;;5.95;3.08;;;16.80;99.90;;;;;;4881256;29;20052;-77
2023/08/17 01:08:59;;;;;;;7.55;3.30;;;16.80;99.90;;;;;;4878583;29;20041;-77
2023/08/17 01:11:34;;;;;;;6.75;3.20;;;16.80;99.90;;;;;;4878160;29;20044;-78
2023/08/17 01:14:09;;;;;;;6.85;3.20;;;16.70;99.90;;;;;;4881212;29;20056;-78
2023/08/17 01:16:45;;;;;;;5.93;3.17;;;16.70;99.90;;;;;;4880012;29;20116;-77
2023/08/17 01:19:17;;;;;;;7.32;3.28;;;16.70;99.90;;;;;;4862281;29;20045;-78
2023/08/17 01:21:50;;;;;;;6.65;3.10;;;16.70;99.90;;;;;;4879033;29;20059;-77
2023/08/17 01:24:15;;;;;;;6.13;3.15;;;16.60;99.90;;;;;;4877575;29;20053;-73
2023/08/17 01:26:41;;;;;;;8.20;3.83;;;16.60;99.90;;;;;;4887307;29;20044;-78
2023/08/17 01:29:07;;;;;;;6.35;3.25;;;16.60;99.90;;;;;;4868108;29;20231;-77
2023/08/17 01:31:51;;;;;;;6.53;3.03;;;16.60;99.90;;;;;;4889320;29;20085;-76
2023/08/17 01:34:23;;;;;;;6.80;3.00;;;16.60;99.90;;;;;;4880446;29;20569;-74
2023/08/17 01:36:55;;;;;;;5.00;3.10;;;16.50;99.90;;;;;;4891677;29;20040;-77
2023/08/17 01:39:27;;;;;;;5.72;2.90;;;16.50;99.90;;;;;;4866832;29;20192;-76
2023/08/17 01:41:56;;;;;;;6.53;3.20;;;16.40;99.90;;;;;;4875414;29;20049;-76
2023/08/17 01:44:22;;;;;;;8.85;3.20;;;16.40;99.90;;;;;;4890537;29;20045;-77
2023/08/17 01:46:48;;;;;;;5.38;3.00;;;16.50;99.90;;;;;;4901744;29;20079;-77
2023/08/17 01:49:14;;;;;;;8.43;2.97;;;16.40;99.90;;;;;;4897295;29;20127;-77
2023/08/17 01:51:40;;;;;;;6.00;3.00;;;16.40;99.90;;;;;;4891569;29;20069;-77
2023/08/17 01:54:06;;;;;;;4.35;2.70;;;16.40;99.90;;;;;;4881965;29;20455;-77
2023/08/17 01:56:32;;;;;;;6.90;3.05;;;16.40;99.90;;;;;;4899060;29;20379;-77
2023/08/17 01:58:57;;;;;;;5.82;2.78;;;16.40;99.90;;;;;;4900442;29;20056;-76
2023/08/17 02:01:23;;;;;;;8.35;3.25;;;16.40;99.90;;;;;;4895872;29;20049;-77
2023/08/17 02:03:49;;;;;;;6.38;3.00;;;16.40;99.90;;;;;;4900744;29;20124;-77
2023/08/17 02:06:14;;;;;;;6.43;3.00;;;16.40;99.90;;;;;;4898522;29;20135;-76
2023/08/17 02:08:41;;;;;;;5.57;2.90;;;16.40;99.90;;;;;;4899983;29;20044;-78
2023/08/17 02:11:07;;;;;;;5.80;2.97;;;16.30;99.90;;;;;;4900188;29;20100;-76
2023/08/17 02:13:32;;;;;;;6.85;3.05;;;16.30;99.90;;;;;;4885766;29;20057;-77
2023/08/17 02:15:58;;;;;;;6.53;3.30;;;16.30;99.90;;;;;;4894836;29;20044;-76
2023/08/17 02:18:24;;;;;;;10.32;3.60;;;16.30;99.90;;;;;;4900344;29;20048;-74
2023/08/17 02:20:49;;;;;;;7.03;3.08;;;16.30;99.90;;;;;;4898839;29;20513;-78
2023/08/17 02:23:15;;;;;;;7.93;2.95;;;16.30;99.90;;;;;;4892432;29;20045;-77
2023/08/17 02:25:41;;;;;;;7.68;3.08;;;16.20;99.90;;;;;;4884298;29;20579;-77
2023/08/17 02:28:07;;;;;;;9.07;3.15;;;16.20;99.90;;;;;;4878917;29;20135;-77
2023/08/17 02:30:32;;;;;;;7.53;3.55;;;16.20;99.90;;;;;;4866481;29;20077;-77
2023/08/17 02:32:58;;;;;;;6.57;2.97;;;16.20;99.90;;;;;;4875413;29;20057;-77
2023/08/17 02:35:24;;;;;;;7.10;3.03;;;16.20;99.90;;;;;;4879815;29;20148;-73
2023/08/17 02:37:50;;;;;;;7.47;2.50;;;16.20;99.90;;;;;;4879901;29;20535;-77
2023/08/17 02:40:15;;;;;;;7.20;2.80;;;16.20;99.90;;;;;;4884163;29;20040;-78
2023/08/17 02:42:41;;;;;;;4.63;2.45;;;16.20;99.90;;;;;;4883272;29;20045;-78
2023/08/17 02:45:08;;;;;;;10.20;3.10;;;16.20;99.90;;;;;;4897114;29;20418;-77
2023/08/17 02:47:34;;;;;;;7.07;2.85;;;16.20;99.90;;;;;;4899636;29;20392;-78
2023/08/17 02:49:59;;;;;;;7.38;3.03;;;16.20;99.90;;;;;;4898125;29;20104;-78
2023/08/17 02:52:25;;;;;;;6.53;3.05;;;16.20;99.90;;;;;;4874593;29;20131;-77
2023/08/17 02:54:51;;;;;;;7.63;2.65;;;16.20;99.90;;;;;;4888990;29;20056;-77
2023/08/17 02:57:18;;;;;;;8.30;2.58;;;16.20;99.90;;;;;;4880757;29;20048;-77
2023/08/17 02:59:44;;;;;;;5.13;2.63;;;16.20;99.90;;;;;;4857973;29;20081;-78
2023/08/17 03:02:09;;;;;;;7.20;2.63;;;16.20;99.90;;;;;;4894282;29;20478;-76
2023/08/17 03:04:35;;;;;;;7.47;2.60;;;16.20;99.90;;;;;;4885148;29;20045;-76
2023/08/17 03:07:01;;;;;;;6.55;2.58;;;16.10;99.90;;;;;;4893060;29;20051;-77
2023/08/17 03:09:26;;;;;;;6.38;2.30;;;16.10;99.90;;;;;;4898708;29;20099;-78
2023/08/17 03:11:53;;;;;;;7.75;2.85;;;16.10;99.90;;;;;;4898923;29;20052;-77
2023/08/17 03:14:18;;;;;;;5.53;2.40;;;16.10;99.90;;;;;;4898261;29;20084;-77
2023/08/17 03:16:44;;;;;;;10.77;2.58;;;16.10;99.90;;;;;;4888657;29;20080;-76
2023/08/17 03:19:11;;;;;;;7.22;2.75;;;16.10;99.90;;;;;;4894911;29;20056;-78
2023/08/17 03:21:37;;;;;;;7.43;2.85;;;16.10;99.90;;;;;;4881999;29;20481;-77
2023/08/17 03:24:03;;;;;;;5.57;2.75;;;16.00;99.90;;;;;;4899241;29;20052;-77
2023/08/17 03:26:29;;;;;;;6.95;2.70;;;16.00;99.90;;;;;;4893341;29;20040;-77
2023/08/17 03:28:55;;;;;;;4.45;2.65;;;16.00;99.90;;;;;;4858309;29;20056;-77
2023/08/17 03:31:23;;;;;;;6.15;2.80;;;16.00;99.90;;;;;;4895428;29;20049;-77
2023/08/17 03:33:49;;;;;;;7.68;2.92;;;16.00;99.90;;;;;;4881660;29;20083;-77
2023/08/17 03:36:15;;;;;;;5.85;2.60;;;16.00;99.90;;;;;;4875253;29;20052;-78
2023/08/17 03:38:40;;;;;;;8.35;2.67;;;15.90;99.90;;;;;;4886006;29;20071;-77
2023/08/17 03:41:07;;;;;;;6.65;2.63;;;15.90;99.90;;;;;;4889216;29;20055;-76
2023/08/17 03:43:33;;;;;;;8.70;2.58;;;15.90;99.90;;;;;;4883930;29;20049;-77
2023/08/17 03:45:58;;;;;;;11.35;2.30;;;15.90;99.90;;;;;;4897218;29;20060;-78
2023/08/17 03:48:25;;;;;;;7.95;2.20;;;15.90;99.90;;;;;;4894450;29;20085;-77
2023/08/17 03:50:54;;;;;;;8.15;2.40;;;15.90;99.90;;;;;;4886158;29;20196;-79
2023/08/17 03:53:21;;;;;;;7.25;2.28;;;15.90;99.90;;;;;;4898377;29;20041;-77
2023/08/17 03:55:50;;;;;;;5.45;2.97;;;15.90;99.90;;;;;;4868190;29;20092;-78
2023/08/17 03:58:17;;;;;;;10.32;3.17;;;15.90;99.90;;;;;;4887221;29;20415;-76
2023/08/17 04:00:49;;;;;;;6.57;2.78;;;15.90;99.90;;;;;;4894866;29;20558;-77
2023/08/17 04:03:15;;;;;;;8.32;2.60;;;15.80;99.90;;;;;;4898710;29;20123;-78
2023/08/17 04:05:41;;;;;;;5.80;2.70;;;15.80;99.90;;;;;;4887339;29;20555;-76
2023/08/17 04:08:07;;;;;;;5.70;2.85;;;15.80;99.90;;;;;;4884616;29;20041;-78
2023/08/17 04:10:32;;;;;;;7.05;3.15;;;15.80;99.90;;;;;;4892159;29;20044;-78
2023/08/17 04:12:58;;;;;;;7.78;3.20;;;15.80;99.90;;;;;;4897648;29;20056;-78
2023/08/17 04:15:24;;;;;;;5.47;2.78;;;15.80;99.90;;;;;;4897965;29;20056;-76
2023/08/17 04:17:49;;;;;;;7.47;3.28;;;15.80;99.90;;;;;;4855374;29;20052;-78
2023/08/17 04:20:15;;;;;;;8.15;2.97;;;15.80;99.90;;;;;;4879096;29;20073;-78
2023/08/17 04:22:41;;;;;;;5.70;2.88;;;15.80;99.90;;;;;;4893448;29;20521;-74
2023/08/17 04:25:07;;;;;;;6.65;3.30;;;15.80;99.90;;;;;;4898332;29;20052;-77
2023/08/17 04:27:33;;;;;;;7.35;3.03;;;15.70;99.90;;;;;;4880956;29;20495;-76
2023/08/17 04:30:00;;;;;;;6.30;3.10;;;15.70;99.90;;;;;;4889840;29;20076;-77
2023/08/17 04:32:26;;;;;;;7.38;3.17;;;15.70;99.90;;;;;;4887458;29;20380;-79
2023/08/17 04:34:51;;;;;;;6.63;3.35;;;15.70;99.90;;;;;;4896094;29;20044;-77
2023/08/17 04:37:17;;;;;;;8.43;3.35;;;15.80;99.90;;;;;;4871186;29;20057;-77
2023/08/17 04:39:43;;;;;;;6.45;3.10;;;15.80;99.90;;;;;;4862369;29;20055;-74
2023/08/17 04:42:09;;;;;;;5.93;2.80;;;15.70;99.90;;;;;;4880101;29;20219;-78
2023/08/17 04:44:35;;;;;;;6.32;2.97;;;15.70;99.90;;;;;;4892289;29;20049;-77
2023/08/17 04:47:01;;;;;;;7.10;2.92;;;15.70;99.90;;;;;;4893919;29;20040;-78
2023/08/17 04:49:26;;;;;;;7.43;2.60;;;15.70;99.90;;;;;;4897241;29;20399;-77
2023/08/17 04:51:53;;;;;;;5.10;2.67;;;15.70;99.90;;;;;;4892982;29;20234;-77
2023/08/17 04:54:19;;;;;;;7.18;3.00;;;15.70;99.90;;;;;;4897149;29;20161;-76
2023/08/17 04:56:44;;;;;;;7.75;2.92;;;15.70;99.90;;;;;;4897613;29;20290;-73
2023/08/17 04:59:10;;;;;;;9.15;3.20;;;15.70;99.90;;;;;;4880362;29;20048;-78
2023/08/17 05:01:36;;;;;;;7.63;3.15;;;15.70;99.90;;;;;;4881448;29;20055;-77
2023/08/17 05:04:03;;;;;;;7.75;2.85;;;15.70;99.90;;;;;;4881491;29;20048;-78
2023/08/17 05:06:29;;;;;;;10.32;3.05;;;15.70;99.90;;;;;;4898615;29;20112;-77
2023/08/17 05:08:55;;;;;;;5.88;2.90;;;15.80;99.90;;;;;;4895046;29;20180;-77
2023/08/17 05:11:21;;;;;;;4.95;2.63;;;15.80;99.90;;;;;;4868742;29;20117;-78
2023/08/17 05:13:47;;;;;;;5.68;2.63;;;15.80;99.90;;;;;;4887837;29;20526;-74
2023/08/17 05:16:13;;;;;;;8.90;3.05;;;15.80;99.90;;;;;;4899187;29;20124;-78
2023/08/17 05:18:38;;;;;;;5.70;2.60;;;15.80;99.90;;;;;;4889072;29;20049;-78
2023/08/17 05:21:04;;;;;;;9.02;2.88;;;15.80;99.90;;;;;;4882913;29;20055;-79
2023/08/17 05:23:30;;;;;;;6.80;2.72;;;15.90;99.90;;;;;;4880257;29;20109;-77
2023/08/17 05:25:55;;;;;;;7.97;2.60;;;16.00;99.90;;;;;;4880147;29;20444;-79
2023/08/17 05:28:21;;;;;;;5.70;2.58;;;16.10;99.90;;;;;;4865910;29;20057;-76
2023/08/17 05:30:47;;;;;;;7.35;2.78;;;16.10;99.90;;;;;;4865763;29;20061;-76
2023/08/17 05:33:12;;;;;;;7.28;2.47;;;16.30;99.90;;;;;;4865204;29;20048;-78
2023/08/17 05:35:38;;;;;;;8.77;2.60;;;16.40;99.90;;;;;;4882895;29;20217;-78
2023/08/17 05:38:04;;;;;;;4.47;2.20;;;16.70;99.90;;;;;;4880210;29;20049;-78
2023/08/17 05:40:31;;;;;;;7.68;2.55;;;17.20;99.90;;;;;;4870038;29;20036;-78
2023/08/17 05:42:57;;;;;;;6.60;2.53;;;17.90;99.90;;;;;;4885584;29;20116;-76
2023/08/17 05:45:22;;;;;;;5.30;2.30;;;18.80;99.90;;;;;;4881470;29;20057;-77
2023/08/17 05:47:48;;;;;;;5.53;2.10;;;19.50;99.90;;;;;;4868933;29;20045;-77
2023/08/17 05:50:14;;;;;;;8.65;2.28;;;20.00;99.90;;;;;;4879359;29;20048;-78
2023/08/17 05:52:41;;;;;;;4.38;2.08;;;20.50;99.90;;;;;;4880467;29;20072;-77
2023/08/17 05:55:07;;;;;;;5.70;1.80;;;21.00;99.90;;;;;;4864368;29;20061;-77
2023/08/17 05:57:33;;;;;;;3.80;1.98;;;21.50;99.90;;;;;;4884970;29;20459;-77
2023/08/17 05:59:59;;;;;;;5.15;2.08;;;22.10;99.90;;;;;;4866821;29;20052;-79
2023/08/17 06:02:25;;;;;;;4.30;1.65;;;22.60;99.90;;;;;;4880422;29;20056;-76
2023/08/17 06:04:51;;;;;;;7.25;2.15;;;23.20;99.90;;;;;;4849732;29;20349;-77
2023/08/17 06:07:17;;;;;;;6.45;1.70;;;23.70;99.90;;;;;;4881444;29;20120;-79
2023/08/17 06:09:43;;;;;;;6.65;1.92;;;24.00;99.90;;;;;;4880278;29;20441;-79
2023/08/17 06:12:08;;;;;;;3.83;1.70;;;24.10;99.90;;;;;;4879822;29;20124;-77
2023/08/17 06:14:34;;;;;;;7.65;1.98;;;24.50;99.90;;;;;;4879854;29;20124;-78
2023/08/17 06:17:00;;;;;;;6.53;2.03;;;24.40;99.90;;;;;;4864318;29;20127;-77
2023/08/17 06:19:26;;;;;;;6.32;1.48;;;24.50;99.90;;;;;;4880108;29;20097;-77
2023/08/17 06:21:52;;;;;;;3.63;1.50;;;24.50;99.90;;;;;;4870285;29;20049;-76
2023/08/17 06:24:18;;;;;;;6.40;1.73;;;24.80;99.90;;;;;;4863614;29;20064;-77
2023/08/17 06:26:45;;;;;;;4.38;1.55;;;24.90;99.90;;;;;;4864083;29;20441;-78
2023/08/17 06:29:11;;;;;;;5.57;2.00;;;25.40;99.90;;;;;;4879824;29;20084;-76
2023/08/17 06:31:37;;;;;;;6.15;1.85;;;25.30;99.90;;;;;;4880162;29;20079;-78
2023/08/17 06:34:02;;;;;;;4.53;1.88;;;25.50;99.90;;;;;;4868077;29;20088;-76
2023/08/17 06:36:32;;;;;;;6.20;1.38;;;25.50;99.90;;;;;;4881438;29;20136;-77
2023/08/17 06:38:58;;;;;;;3.88;1.80;;;25.60;99.90;;;;;;4863649;29;20139;-75
2023/08/17 06:41:24;;;;;;;3.75;1.40;;;25.60;99.90;;;;;;4891732;29;20076;-76
2023/08/17 06:43:51;;;;;;;3.72;1.42;;;25.50;99.90;;;;;;4895696;29;20079;-78
2023/08/17 06:46:16;;;;;;;5.60;1.40;;;25.00;99.90;;;;;;4896974;29;20052;-79
2023/08/17 06:48:43;;;;;;;9.00;1.60;;;24.70;99.90;;;;;;4885483;29;20467;-79
2023/08/17 06:51:09;;;;;;;4.05;1.50;;;24.50;99.90;;;;;;4889513;29;20052;-78
2023/08/17 06:53:34;;;;;;;5.03;1.38;;;24.40;99.90;;;;;;4866530;29;20123;-77
2023/08/17 06:56:00;;;;;;;4.53;1.17;;;23.90;99.90;;;;;;4874407;29;20108;-75
2023/08/17 06:58:26;;;;;;;3.95;1.30;;;23.40;99.90;;;;;;4882878;29;20053;-78
2023/08/17 07:00:52;;;;;;;3.85;1.40;;;22.90;99.90;;;;;;4898366;29;20085;-79
2023/08/17 07:03:17;;;;;;;5.07;1.30;;;22.40;99.90;;;;;;4862367;29;20120;-78
2023/08/17 07:05:44;;;;;;;7.45;1.83;;;22.10;99.90;;;;;;4887863;29;20119;-79
2023/08/17 07:08:10;;;;;;;5.75;1.60;;;21.60;99.90;;;;;;4898562;29;20472;-78
2023/08/17 07:10:35;;;;;;;4.80;1.45;;;21.30;99.90;;;;;;4897906;29;20100;-80
2023/08/17 07:13:03;;;;;;;5.00;1.50;;;21.20;99.90;;;;;;4886037;29;20049;-79
2023/08/17 07:15:30;;;;;;;6.03;1.63;;;21.10;99.90;;;;;;4878300;29;20044;-79
2023/08/17 07:17:55;;;;;;;5.82;1.70;;;21.00;99.90;;;;;;4880584;29;20041;-79
2023/08/17 07:20:21;;;;;;;3.65;1.65;;;20.80;99.90;;;;;;4879288;29;20456;-77
2023/08/17 07:22:47;;;;;;;3.88;1.75;;;20.70;99.90;;;;;;4879117;29;20433;-81
2023/08/17 07:25:13;;;;;;;4.90;1.50;;;20.50;99.90;;;;;;4879595;29;20053;-79
2023/08/17 07:27:39;;;;;;;4.75;1.50;;;20.40;99.90;;;;;;4863439;29;20127;-82
2023/08/17 07:30:05;;;;;;;5.70;1.40;;;20.30;99.90;;;;;;4879523;29;20073;-75
2023/08/17 07:32:31;;;;;;;4.97;1.63;;;20.30;99.90;;;;;;4867634;29;20048;-80
2023/08/17 07:34:57;;;;;;;5.80;1.83;;;20.30;99.90;;;;;;4880186;29;20492;-82
2023/08/17 07:37:23;;;;;;;5.72;1.83;;;20.20;99.90;;;;;;4890320;29;20080;-81
2023/08/17 07:39:48;;;;;;;5.60;1.60;;;20.30;99.90;;;;;;4879989;29;20045;-81
2023/08/17 07:42:14;;;;;;;4.75;1.50;;;20.30;99.90;;;;;;4890259;29;20498;-83
2023/08/17 07:44:40;;;;;;;5.57;1.50;;;20.30;99.90;;;;;;4882699;29;20178;-83
2023/08/17 07:47:06;;;;;;;2.65;1.30;;;20.40;99.90;;;;;;4896193;29;20041;-81
2023/08/17 07:49:32;;;;;;;6.35;1.88;;;20.30;99.90;;;;;;4873378;29;20135;-84
2023/08/17 07:51:57;;;;;;;4.35;1.40;;;20.20;99.90;;;;;;4875885;29;20059;-85
2023/08/17 07:54:23;;;;;;;3.22;1.40;;;20.30;99.90;;;;;;4893890;29;20049;-83
2023/08/17 07:56:49;;;;;;;8.02;1.38;;;20.50;99.90;;;;;;4854280;29;20527;-85
2023/08/17 07:59:14;;;;;;;3.33;1.35;;;20.60;99.90;;;;;;4889717;29;20046;-85
2023/08/17 08:01:41;;;;;;;4.07;1.30;;;20.90;99.90;;;;;;4878445;29;20087;-83
2023/08/17 08:04:07;;;;;;;3.53;1.33;;;21.00;99.90;;;;;;4877224;29;20060;-84
2023/08/17 08:06:33;;;;;;;6.78;1.35;;;21.10;99.90;;;;;;4887554;29;20048;-79
2023/08/17 08:08:59;;;;;;;4.50;1.33;;;21.10;99.90;;;;;;4878599;29;20128;-84
2023/08/17 08:11:27;;;;;;;3.55;1.58;;;21.10;99.90;;;;;;4897103;29;20481;-85
2023/08/17 08:13:53;;;;;;;4.65;1.27;;;21.20;99.90;;;;;;4894286;29;20120;-82
2023/08/17 08:16:18;;;;;;;2.97;1.33;;;21.20;99.90;;;;;;4870088;29;20558;-78
2023/08/17 08:18:44;;;;;;;4.10;1.50;;;21.20;99.90;;;;;;4878145;29;20048;-84
2023/08/17 08:21:10;;;;;;;4.40;1.48;;;21.30;99.90;;;;;;4879958;29;20174;-88
2023/08/17 08:23:36;;;;;;;4.65;1.70;;;21.20;99.90;;;;;;4860471;29;20048;-85
2023/08/17 08:26:01;;;;;;;4.72;1.60;;;21.10;99.90;;;;;;4874471;29;20049;-85
2023/08/17 08:28:27;;;;;;;4.28;1.00;;;21.00;99.90;;;;;;4884120;29;20083;-87
2023/08/17 08:30:53;;;;;;;6.35;1.58;;;21.00;99.90;;;;;;4866237;29;20053;-78
2023/08/17 08:33:18;;;;;;;4.30;1.90;;;20.70;99.90;;;;;;4880844;29;20044;-87
2023/08/17 08:35:45;;;;;;;4.80;1.20;;;20.60;99.90;;;;;;4880983;29;20084;-88
2023/08/17 08:38:11;;;;;;;4.93;1.17;;;20.40;99.90;;;;;;4880812;29;20083;-89
2023/08/17 08:40:38;;;;;;;6.05;1.40;;;20.40;99.90;;;;;;4878500;29;20041;-87
2023/08/17 08:43:04;;;;;;;3.42;1.50;;;20.30;99.90;;;;;;4886225;29;20052;-87
2023/08/17 08:45:30;;;;;;;3.97;1.38;;;20.20;99.90;;;;;;4886741;29;20159;-86
2023/08/17 08:48:00;;;;;;;7.07;1.50;;;20.20;99.90;;;;;;4874472;29;20057;-88
2023/08/17 08:50:30;;;;;;;3.58;1.17;;;20.20;99.90;;;;;;4879389;29;20053;-85
2023/08/17 08:53:00;;;;;;;3.33;1.23;;;20.10;99.90;;;;;;4882096;29;20044;-88
2023/08/17 08:55:30;;;;;;;4.82;1.58;;;20.10;99.90;;;;;;4888660;29;20101;-86
2023/08/17 08:57:56;;;;;;;4.90;1.25;;;20.10;99.90;;;;;;4894386;29;20061;-88
2023/08/17 09:00:24;;;;;;;5.90;1.88;;;20.00;99.90;;;;;;4888049;29;20048;-82
2023/08/17 09:02:51;;;;;;;4.07;1.55;;;20.10;99.90;;;;;;4889744;29;20504;-87
2023/08/17 09:05:17;;;;;;;3.97;1.30;;;20.10;99.90;;;;;;4880991;29;20057;-87
2023/08/17 09:07:43;;;;;;;6.22;1.52;;;20.20;99.90;;;;;;4875111;29;20049;-89
2023/08/17 09:10:10;;;;;;;3.85;1.48;;;20.20;99.90;;;;;;4883013;29;20055;-85
2023/08/17 09:12:36;;;;;;;7.15;1.52;;;20.30;99.90;;;;;;4880144;29;20040;-82
2023/08/17 09:15:02;;;;;;;2.85;1.38;;;20.40;99.90;;;;;;4862663;29;20513;-80
2023/08/17 09:17:28;;;;;;;4.32;1.60;;;20.70;99.90;;;;;;4877446;29;20096;-80
2023/08/17 09:19:54;;;;;;;5.88;1.38;;;21.00;99.90;;;;;;4880511;29;20128;-80
2023/08/17 09:22:41;;;;;;;3.63;1.50;;;21.30;99.90;;;;;;4878466;29;20117;-76
2023/08/17 09:25:08;;;;;;;4.53;1.17;;;21.70;99.90;;;;;;4882028;29;20093;-80
2023/08/17 09:27:35;;;;;;;4.82;1.25;;;22.00;99.90;;;;;;4862261;29;20433;-83
2023/08/17 09:30:09;;;;;;;8.10;1.55;;;22.20;99.90;;;;;;4879954;29;20053;-86
2023/08/17 09:32:35;;;;;;;3.88;1.45;;;22.50;99.90;;;;;;4882876;29;20049;-84
2023/08/17 09:35:02;;;;;;;9.63;1.85;;;23.00;99.90;;;;;;4863683;29;20052;-86
2023/08/17 09:37:28;;;;;;;4.80;1.30;;;23.50;99.90;;;;;;4879934;29;20045;-84
2023/08/17 09:39:54;;;;;;;4.93;1.50;;;23.80;99.90;;;;;;4882406;29;20062;-87
2023/08/17 09:42:22;;;;;;;3.95;1.33;;;24.00;99.90;;;;;;4893566;29;20052;-85
2023/08/17 09:44:49;;;;;;;4.15;1.50;;;24.10;99.90;;;;;;4892293;29;20064;-85
2023/08/17 09:47:17;;;;;;;3.00;1.45;;;24.00;99.90;;;;;;4899966;29;20052;-85
2023/08/17 09:49:49;;;;;;;3.17;1.45;;;23.80;99.90;;;;;;4881339;29;20150;-84
2023/08/17 09:52:15;;;;;;;4.93;1.65;;;23.50;99.90;;;;;;4900634;29;20052;-84
2023/08/17 09:54:42;;;;;;;5.82;1.65;;;23.30;99.90;;;;;;4890872;29;20199;-82
2023/08/17 09:57:09;;;;;;;5.22;1.60;;;23.30;99.90;;;;;;4849315;29;20139;-84
2023/08/17 09:59:34;;;;;;;4.60;1.50;;;23.30;99.90;;;;;;4893521;29;20053;-79
2023/08/17 10:02:01;;;;;;;5.22;1.48;;;23.20;99.90;;;;;;4879495;29;20117;-87
2023/08/17 10:04:30;;;;;;;4.57;1.45;;;23.20;99.90;;;;;;4890468;29;20214;-78
2023/08/17 10:07:03;;;;;;;5.18;1.55;;;23.00;99.90;;;;;;4881153;29;20068;-88
2023/08/17 10:09:36;;;;;;;2.58;1.23;;;23.00;99.90;;;;;;4883801;29;20049;-84
2023/08/17 10:12:15;;;;;;;4.18;1.63;;;23.10;99.90;;;;;;4878610;29;20045;-86
2023/08/17 10:14:49;;;;;;;6.10;1.67;;;23.10;99.90;;;;;;4877861;29;20076;-85
2023/08/17 10:17:21;;;;;;;3.35;1.45;;;23.10;99.90;;;;;;4872011;29;20041;-87
2023/08/17 10:19:52;;;;;;;3.08;1.30;;;23.10;99.90;;;;;;4882659;29;20055;-81
2023/08/17 10:22:23;;;;;;;5.05;1.75;;;23.00;99.90;;;;;;4867752;29;20063;-89
2023/08/17 10:24:50;;;;;;;7.95;1.60;;;22.90;99.90;;;;;;4888416;29;20101;-88
2023/08/17 10:27:17;;;;;;;5.88;1.20;;;23.00;99.90;;;;;;4882925;29;20044;-89
2023/08/17 10:29:44;;;;;;;5.13;1.50;;;23.10;99.90;;;;;;4883846;29;20051;-88
2023/08/17 10:32:11;;;;;;;4.55;1.50;;;23.10;99.90;;;;;;4882071;29;20041;-86
2023/08/17 10:34:38;;;;;;;3.75;1.60;;;22.80;99.90;;;;;;4868646;29;20041;-84
2023/08/17 10:37:05;;;;;;;4.05;1.35;;;22.70;99.90;;;;;;4883932;29;20079;-87
2023/08/17 10:39:31;;;;;;;3.33;1.40;;;22.60;99.90;;;;;;4882310;29;20053;-76
2023/08/17 10:41:58;;;;;;;5.40;1.38;;;22.40;99.90;;;;;;4895163;29;20036;-85
2023/08/17 10:44:43;;;;;;;5.70;1.80;;;22.40;99.90;;;;;;4885106;29;20044;-84
2023/08/17 10:47:29;;;;;;;4.68;1.73;;;22.40;99.90;;;;;;4876985;29;20094;-86
2023/08/17 10:50:03;;;;;;;7.10;1.42;;;22.30;99.90;;;;;;4880734;29;20056;-85
2023/08/17 10:52:34;;;;;;;3.13;1.30;;;22.30;99.90;;;;;;4881683;29;20048;-86
2023/08/17 10:55:05;;;;;;;8.73;1.98;;;22.20;99.90;;;;;;4864331;29;20084;-86
2023/08/17 10:57:33;;;;;;;5.05;1.50;;;22.30;99.90;;;;;;4881616;29;20065;-87
2023/08/17 11:00:21;;;;;;;4.30;1.45;;;22.40;99.90;;;;;;4882318;29;20135;-89
2023/08/17 11:03:01;;;;;;;5.32;1.63;;;22.60;99.90;;;;;;4882197;29;20112;-87
2023/08/17 11:05:52;;;;;;;5.72;1.80;;;22.60;99.90;;;;;;4882475;29;20056;-81
2023/08/17 11:08:21;;;;;;;6.05;1.90;;;22.70;99.90;;;;;;4879191;29;20067;-87
2023/08/17 11:11:02;;;;;;;5.72;1.98;;;22.70;99.90;;;;;;4879061;29;20049;-83
2023/08/17 11:13:30;;;;;;;3.55;1.58;;;22.70;99.90;;;;;;4878718;29;20108;-84
2023/08/17 11:15:58;;;;;;;6.75;1.55;;;22.70;99.90;;;;;;4879249;29;20053;-82
2023/08/17 11:18:24;;;;;;;4.30;1.50;;;22.80;99.90;;;;;;4880454;29;20049;-83
2023/08/17 11:20:51;;;;;;;6.03;1.90;;;22.80;99.90;;;;;;4877180;29;20081;-83
2023/08/17 11:23:17;;;;;;;5.32;1.63;;;22.80;99.90;;;;;;4876730;29;20064;-80
2023/08/17 11:25:43;;;;;;;3.58;1.80;;;22.80;99.90;;;;;;4878380;29;20406;-80
2023/08/17 11:28:09;;;;;;;5.60;1.70;;;22.70;99.90;;;;;;4877422;29;20053;-81
2023/08/17 11:30:37;;;;;;;5.15;1.58;;;22.60;99.90;;;;;;4878045;29;20132;-86
2023/08/17 11:33:03;;;;;;;6.82;1.80;;;22.70;99.90;;;;;;4859819;29;20057;-81
2023/08/17 11:35:29;;;;;;;5.45;1.60;;;22.60;99.90;;;;;;4848073;29;20124;-83
2023/08/17 11:37:55;;;;;;;5.75;1.60;;;22.70;99.90;;;;;;4879867;29;20052;-84
2023/08/17 11:40:20;;;;;;;6.05;1.65;;;22.70;99.90;;;;;;4856207;29;20074;-73
2023/08/17 11:42:47;;;;;;;4.85;1.85;;;22.70;99.90;;;;;;4840870;29;20057;-82
2023/08/17 11:45:13;;;;;;;4.53;1.70;;;22.70;99.90;;;;;;4877181;29;21490;-82
2023/08/17 11:47:40;;;;;;;5.50;1.98;;;22.90;99.90;;;;;;4877008;29;20057;-77
2023/08/17 11:50:08;;;;;;;6.13;1.58;;;22.90;99.90;;;;;;4876659;29;20079;-72
2023/08/17 11:52:36;;;;;;;7.05;2.13;;;23.00;99.90;;;;;;4884029;29;20413;-85
2023/08/17 11:55:02;;;;;;;4.43;1.60;;;23.10;99.90;;;;;;4880245;29;20093;-85
2023/08/17 11:57:30;;;;;;;5.68;1.80;;;23.10;99.90;;;;;;4880227;29;20053;-85
2023/08/17 11:59:56;;;;;;;7.10;1.75;;;23.20;99.90;;;;;;4879856;29;20056;-84
2023/08/17 12:02:29;;;;;;;5.88;1.90;;;23.10;99.90;;;;;;4879221;29;20045;-85
2023/08/17 12:04:56;;;;;;;4.10;1.70;;;23.00;99.90;;;;;;4879241;29;20045;-86
2023/08/17 12:07:24;;;;;;;4.45;1.60;;;22.90;99.90;;;;;;4880333;29;20427;-86
2023/08/17 12:09:51;;;;;;;6.65;1.90;;;22.70;99.90;;;;;;4884465;29;20044;-87
2023/08/17 12:12:22;;;;;;;5.80;1.73;;;22.80;99.90;;;;;;4879790;29;20053;-86
2023/08/17 12:14:48;;;;;;;3.42;1.65;;;22.60;99.90;;;;;;4879139;29;20056;-86
2023/08/17 12:17:16;;;;;;;4.57;1.70;;;22.60;99.90;;;;;;4880660;29;20041;-86
2023/08/17 12:19:42;;;;;;;4.80;1.85;;;22.50;99.90;;;;;;4865150;29;20068;-86
2023/08/17 12:22:08;;;;;;;4.53;1.52;;;22.30;99.90;;;;;;4879015;29;20057;-85
2023/08/17 12:24:37;;;;;;;3.35;1.63;;;22.30;99.90;;;;;;4863103;29;20136;-85
2023/08/17 12:27:03;;;;;;;4.68;1.85;;;22.30;99.90;;;;;;4878220;29;20056;-86
2023/08/17 12:29:29;;;;;;;5.15;2.05;;;22.30;99.90;;;;;;4889723;29;20083;-85
2023/08/17 12:31:57;;;;;;;10.13;2.63;;;22.30;99.90;;;;;;4867492;29;20049;-85
2023/08/17 12:34:23;;;;;;;5.95;2.50;;;22.30;99.90;;;;;;4849167;29;20063;-87
2023/08/17 12:36:49;;;;;;;5.30;1.70;;;22.30;99.90;;;;;;4878764;29;20480;-76
2023/08/17 12:39:15;;;;;;;5.40;1.92;;;22.30;99.90;;;;;;4881133;29;20432;-86
2023/08/17 12:41:41;;;;;;;6.07;2.17;;;22.40;99.90;;;;;;4878510;29;20044;-86
2023/08/17 12:44:09;;;;;;;6.10;2.05;;;22.40;99.90;;;;;;4897513;29;20051;-85